Time;durP1;ratioP1;P1;durP2;ratioP2;P2;SDS_P1;SDS_P2;PMS_P1;PMS_P2;Temp;Humidity;BMP_temperature;BMP_pressure;BME280_temperature;BME280_humidity;BME280_pressure;Samples;Min_cycle;Max_cycle;Signal;HPM_P1;HPM_P2
2023/08/08 00:00:11;;;;;;;;;;;;;;;18.89;85.76;95070.25;5135175;27;1036;-58
2023/08/08 00:02:38;;;;;;;;;;;;;;;18.88;86.38;95070.47;5135254;27;1914;-58
2023/08/08 00:05:05;;;;;;;;;;;;;;;18.94;85.81;95060.66;5135057;27;1024;-58
2023/08/08 00:07:31;;;;;;;;;;;;;;;19.04;85.03;95066.44;5116683;27;1044;-58
2023/08/08 00:09:57;;;;;;;;;;;;;;;19.04;84.79;95064.53;5134805;27;1077;-59
2023/08/08 00:12:23;;;;;;;;;;;;;;;19.03;83.94;95064.78;5135017;27;1040;-58
2023/08/08 00:14:49;;;;;;;;;;;;;;;18.98;84.19;95075.41;5134998;27;980;-58
2023/08/08 00:17:15;;;;;;;;;;;;;;;18.92;84.67;95077.94;5134840;27;994;-58
2023/08/08 00:19:41;;;;;;;;;;;;;;;18.89;84.43;95077.53;5134815;27;1611;-58
2023/08/08 00:22:08;;;;;;;;;;;;;;;18.73;85.88;95076.13;5134713;27;1989;-58
2023/08/08 00:24:34;;;;;;;;;;;;;;;18.64;86.87;95078.22;5134947;27;995;-58
2023/08/08 00:27:00;;;;;;;;;;;;;;;18.61;86.83;95075.94;5134757;27;1115;-58
2023/08/08 00:29:26;;;;;;;;;;;;;;;18.54;86.02;95075.94;5134649;27;1040;-58
2023/08/08 00:31:51;;;;;;;;;;;;;;;18.48;87.43;95076.81;5134611;27;1309;-59
2023/08/08 00:34:17;;;;;;;;;;;;;;;18.44;87.04;95075.56;5134545;27;1036;-58
2023/08/08 00:36:43;;;;;;;;;;;;;;;18.44;86.88;95078.28;5134591;27;975;-57
2023/08/08 00:39:09;;;;;;;;;;;;;;;18.56;85.34;95080.34;5134699;27;988;-58
2023/08/08 00:41:35;;;;;;;;;;;;;;;18.61;84.50;95069.69;5133213;27;2712;-59
2023/08/08 00:44:01;;;;;;;;;;;;;;;18.56;84.77;95081.16;5134478;27;1976;-57
2023/08/08 00:46:28;;;;;;;;;;;;;;;18.50;84.36;95077.44;5134566;27;1043;-58
2023/08/08 00:48:54;;;;;;;;;;;;;;;18.47;85.13;95074.31;5134422;28;1007;-58
2023/08/08 00:51:21;;;;;;;;;;;;;;;18.45;85.41;95073.69;5134579;28;1028;-58
2023/08/08 00:53:47;;;;;;;;;;;;;;;18.52;85.68;95072.63;5134304;28;1015;-58
2023/08/08 00:56:13;;;;;;;;;;;;;;;18.23;89.07;95070.41;5134502;28;1056;-58
2023/08/08 00:58:40;;;;;;;;;;;;;;;18.14;88.71;95077.91;5134439;28;1059;-58
2023/08/08 01:01:06;;;;;;;;;;;;;;;18.06;88.94;95076.25;5136992;27;1012;-58
2023/08/08 01:03:32;;;;;;;;;;;;;;;17.95;89.59;95083.13;5138496;27;1985;-58
2023/08/08 01:06:03;;;;;;;;;;;;;;;17.79;91.35;95082.69;5138491;27;1068;-58
2023/08/08 01:08:39;;;;;;;;;;;;;;;17.89;90.99;95083.09;5138287;27;1040;-58
2023/08/08 01:11:05;;;;;;;;;;;;;;;17.97;91.71;95087.50;5138310;27;1027;-59
2023/08/08 01:13:32;;;;;;;;;;;;;;;18.08;91.38;95094.97;5138383;27;972;-57
2023/08/08 01:15:58;;;;;;;;;;;;;;;17.99;91.71;95099.78;5138363;27;953;-58
2023/08/08 01:18:24;;;;;;;;;;;;;;;17.89;92.69;95096.63;5138100;27;1052;-58
2023/08/08 01:20:51;;;;;;;;;;;;;;;17.95;92.38;95098.53;5121690;27;1545;-58
2023/08/08 01:23:35;;;;;;;;;;;;;;;18.06;92.00;95100.59;5117428;28;1905;-58
2023/08/08 01:26:01;;;;;;;;;;;;;;;18.22;90.00;95103.94;5117537;28;1874;-58
2023/08/08 01:28:27;;;;;;;;;;;;;;;18.24;89.16;95113.47;5117496;28;980;-58
2023/08/08 01:30:53;;;;;;;;;;;;;;;18.28;88.72;95114.72;5117287;28;1153;-58
2023/08/08 01:33:19;;;;;;;;;;;;;;;18.43;86.26;95122.63;5117307;28;1083;-58
2023/08/08 01:35:58;;;;;;;;;;;;;;;18.44;87.15;95127.00;5117570;28;1056;-57
2023/08/08 01:38:28;;;;;;;;;;;;;;;18.29;87.61;95121.00;5117430;28;995;-58
2023/08/08 01:40:56;;;;;;;;;;;;;;;18.41;86.16;95122.00;5117584;28;1011;-58
2023/08/08 01:43:23;;;;;;;;;;;;;;;18.46;84.83;95124.09;5117382;28;1930;-57
2023/08/08 01:45:50;;;;;;;;;;;;;;;18.48;85.59;95128.25;5117033;28;1036;-58
2023/08/08 01:48:16;;;;;;;;;;;;;;;18.43;85.88;95130.75;5117296;28;991;-58
2023/08/08 01:50:42;;;;;;;;;;;;;;;18.43;85.48;95136.16;5117057;28;1153;-58
2023/08/08 01:53:08;;;;;;;;;;;;;;;18.33;84.35;95139.28;5117088;28;1258;-58
2023/08/08 01:55:34;;;;;;;;;;;;;;;18.23;83.62;95138.03;5116770;28;1039;-58
2023/08/08 01:58:00;;;;;;;;;;;;;;;18.30;84.19;95138.88;5117166;28;993;-58
2023/08/08 02:00:26;;;;;;;;;;;;;;;18.24;85.08;95140.53;5116724;28;996;-58
2023/08/08 02:02:52;;;;;;;;;;;;;;;18.23;84.38;95130.78;5116979;28;1910;-58
2023/08/08 02:05:18;;;;;;;;;;;;;;;18.26;82.98;95127.63;5116872;28;1003;-58
2023/08/08 02:07:44;;;;;;;;;;;;;;;18.25;84.34;95135.97;5117036;28;1087;-58
2023/08/08 02:10:10;;;;;;;;;;;;;;;18.10;84.33;95131.63;5116588;28;1000;-58
2023/08/08 02:12:36;;;;;;;;;;;;;;;18.20;82.91;95133.91;5115741;28;1028;-58
2023/08/08 02:15:02;;;;;;;;;;;;;;;18.12;84.67;95136.81;5116549;28;1052;-58
2023/08/08 02:17:28;;;;;;;;;;;;;;;18.07;85.41;95142.84;5116393;28;1094;-58
2023/08/08 02:19:54;;;;;;;;;;;;;;;17.97;85.16;95137.03;5116288;28;1613;-58
2023/08/08 02:22:22;;;;;;;;;;;;;;;17.99;85.96;95132.22;5116255;28;1910;-58
2023/08/08 02:24:48;;;;;;;;;;;;;;;17.94;86.03;95134.72;5116556;28;973;-58
2023/08/08 02:27:14;;;;;;;;;;;;;;;17.93;84.20;95138.47;5116538;28;1021;-57
2023/08/08 02:29:40;;;;;;;;;;;;;;;17.97;83.79;95145.13;5116274;28;977;-58
2023/08/08 02:32:06;;;;;;;;;;;;;;;17.90;83.97;95147.81;5116159;28;1096;-58
2023/08/08 02:34:32;;;;;;;;;;;;;;;17.89;84.79;95143.47;5116277;28;1019;-57
2023/08/08 02:36:58;;;;;;;;;;;;;;;17.86;84.78;95149.28;5116449;28;1011;-56
2023/08/08 02:39:24;;;;;;;;;;;;;;;17.94;83.65;95151.78;5116145;28;1056;-57
2023/08/08 02:41:50;;;;;;;;;;;;;;;17.99;83.37;95163.88;5116307;28;1987;-58
2023/08/08 02:44:16;;;;;;;;;;;;;;;18.02;84.94;95163.44;5116071;28;1028;-58
2023/08/08 02:46:42;;;;;;;;;;;;;;;17.88;85.92;95166.13;5116267;28;977;-58
2023/08/08 02:49:08;;;;;;;;;;;;;;;17.91;85.71;95165.72;5116095;28;1121;-58
2023/08/08 02:51:34;;;;;;;;;;;;;;;17.91;85.88;95173.03;5115936;28;960;-58
2023/08/08 02:53:59;;;;;;;;;;;;;;;17.90;86.42;95179.44;5116130;28;1052;-58
2023/08/08 02:56:25;;;;;;;;;;;;;;;17.90;86.25;95184.84;5115678;28;1032;-58
2023/08/08 02:58:51;;;;;;;;;;;;;;;17.83;87.53;95183.97;5115652;28;1028;-58
2023/08/08 03:01:17;;;;;;;;;;;;;;;17.81;87.18;95184.19;5115914;28;968;-58
2023/08/08 03:03:43;;;;;;;;;;;;;;;17.79;88.94;95180.84;5115849;28;1990;-58
2023/08/08 03:06:09;;;;;;;;;;;;;;;17.71;89.13;95183.75;5115885;28;978;-58
2023/08/08 03:08:35;;;;;;;;;;;;;;;17.72;88.61;95186.25;5115866;28;1190;-58
2023/08/08 03:11:01;;;;;;;;;;;;;;;17.69;88.65;95185.84;5115784;28;1061;-58
2023/08/08 03:13:27;;;;;;;;;;;;;;;17.70;88.58;95185.63;5115626;28;1027;-58
2023/08/08 03:15:53;;;;;;;;;;;;;;;17.66;89.29;95189.78;5115651;28;1056;-59
2023/08/08 03:18:19;;;;;;;;;;;;;;;17.70;89.10;95190.19;5115278;28;1094;-59
2023/08/08 03:20:45;;;;;;;;;;;;;;;17.80;88.00;95203.34;5115230;28;1543;-59
2023/08/08 03:23:11;;;;;;;;;;;;;;;17.83;87.76;95202.91;5115208;28;1990;-59
2023/08/08 03:25:37;;;;;;;;;;;;;;;17.83;86.72;95211.03;5115307;28;995;-59
2023/08/08 03:28:03;;;;;;;;;;;;;;;17.93;86.39;95222.34;5115106;28;1059;-59
2023/08/08 03:30:29;;;;;;;;;;;;;;;17.95;84.29;95217.53;5114978;28;1192;-58
2023/08/08 03:32:55;;;;;;;;;;;;;;;17.88;85.04;95216.69;5134290;27;1102;-58
2023/08/08 03:35:21;;;;;;;;;;;;;;;17.89;85.23;95224.59;5135449;27;1040;-56
2023/08/08 03:37:47;;;;;;;;;;;;;;;17.74;83.51;95222.03;5135552;27;1044;-57
2023/08/08 03:40:15;;;;;;;;;;;;;;;17.82;82.76;95223.72;5135524;27;1095;-57
2023/08/08 03:42:41;;;;;;;;;;;;;;;17.86;81.74;95221.47;5135426;27;1910;-57
2023/08/08 03:45:07;;;;;;;;;;;;;;;17.84;83.10;95223.53;5135751;27;1041;-58
2023/08/08 03:47:33;;;;;;;;;;;;;;;17.71;84.69;95221.59;5135638;27;1120;-57
2023/08/08 03:49:59;;;;;;;;;;;;;;;17.67;83.02;95228.47;5135393;27;1960;-57
2023/08/08 03:52:25;;;;;;;;;;;;;;;17.69;83.46;95226.38;5135410;27;964;-59
2023/08/08 03:54:51;;;;;;;;;;;;;;;17.72;83.46;95218.72;5135335;27;960;-59
2023/08/08 03:57:18;;;;;;;;;;;;;;;17.72;83.99;95226.00;5135235;27;1087;-58
2023/08/08 03:59:44;;;;;;;;;;;;;;;17.70;83.01;95223.50;5135048;27;900;-57
2023/08/08 04:02:10;;;;;;;;;;;;;;;17.70;81.60;95220.78;5135169;27;1905;-58
2023/08/08 04:04:35;;;;;;;;;;;;;;;17.67;81.85;95232.00;5135099;27;1098;-58
2023/08/08 04:07:01;;;;;;;;;;;;;;;17.76;81.70;95238.88;5135036;27;1087;-58
2023/08/08 04:09:27;;;;;;;;;;;;;;;17.76;82.41;95241.59;5135059;27;1031;-58
2023/08/08 04:11:53;;;;;;;;;;;;;;;17.72;82.47;95243.03;5133650;27;3027;-58
2023/08/08 04:14:19;;;;;;;;;;;;;;;17.71;83.28;95243.25;5134974;27;1023;-57
2023/08/08 04:16:45;;;;;;;;;;;;;;;17.61;83.66;95246.34;5135094;27;989;-58
2023/08/08 04:19:11;;;;;;;;;;;;;;;17.45;83.47;95244.78;5134998;27;1371;-58
2023/08/08 04:21:37;;;;;;;;;;;;;;;17.55;83.92;95244.44;5134927;27;1080;-58
2023/08/08 04:24:03;;;;;;;;;;;;;;;17.72;81.10;95245.75;5134665;27;1981;-57
2023/08/08 04:26:29;;;;;;;;;;;;;;;17.82;79.92;95244.53;5134957;27;1204;-58
2023/08/08 04:28:55;;;;;;;;;;;;;;;17.90;80.62;95238.97;5134592;27;1102;-56
2023/08/08 04:31:24;;;;;;;;;;;;;;;17.88;80.69;95239.16;5134948;27;1071;-57
2023/08/08 04:33:50;;;;;;;;;;;;;;;18.11;78.43;95241.47;5135289;27;969;-56
2023/08/08 04:36:16;;;;;;;;;;;;;;;18.08;78.06;95241.91;5133821;27;1083;-56
2023/08/08 04:38:42;;;;;;;;;;;;;;;18.11;78.01;95251.47;5135125;27;1052;-56
2023/08/08 04:41:08;;;;;;;;;;;;;;;18.20;77.64;95249.44;5133608;27;2472;-57
2023/08/08 04:43:34;;;;;;;;;;;;;;;18.17;77.10;95249.81;5134431;27;2019;-57
2023/08/08 04:46:00;;;;;;;;;;;;;;;18.32;75.49;95250.47;5134659;27;977;-57
2023/08/08 04:48:26;;;;;;;;;;;;;;;18.49;74.45;95259.84;5134531;27;1045;-57
2023/08/08 04:50:52;;;;;;;;;;;;;;;18.52;75.59;95259.44;5134796;28;1039;-56
2023/08/08 04:53:18;;;;;;;;;;;;;;;18.67;72.07;95264.66;5134287;28;1087;-56
2023/08/08 04:55:43;;;;;;;;;;;;;;;18.87;71.34;95277.38;5134544;28;1102;-57
2023/08/08 04:58:09;;;;;;;;;;;;;;;19.01;73.76;95273.63;5134304;28;1086;-56
2023/08/08 05:00:35;;;;;;;;;;;;;;;19.05;70.58;95274.03;5116004;28;1040;-57
2023/08/08 05:03:01;;;;;;;;;;;;;;;19.25;69.21;95280.22;5134435;28;1991;-58
2023/08/08 05:05:27;;;;;;;;;;;;;;;19.41;69.11;95292.50;5134259;28;994;-58
2023/08/08 05:07:53;;;;;;;;;;;;;;;19.52;68.72;95304.59;5134281;28;1060;-57
2023/08/08 05:10:19;;;;;;;;;;;;;;;19.36;72.11;95302.31;5134056;28;1035;-58
2023/08/08 05:12:45;;;;;;;;;;;;;;;19.17;71.42;95312.97;5134044;28;1043;-58
2023/08/08 05:15:11;;;;;;;;;;;;;;;19.09;69.54;95313.22;5134295;28;1083;-57
2023/08/08 05:17:37;;;;;;;;;;;;;;;19.09;68.40;95314.03;5134374;28;968;-58
2023/08/08 05:20:03;;;;;;;;;;;;;;;19.28;67.65;95315.03;5133946;28;1252;-57
2023/08/08 05:22:29;;;;;;;;;;;;;;;19.45;68.13;95317.31;5134168;28;1910;-55
2023/08/08 05:24:55;;;;;;;;;;;;;;;19.64;67.63;95324.56;5134154;28;1059;-55
2023/08/08 05:27:21;;;;;;;;;;;;;;;19.75;64.78;95330.38;5134229;28;1011;-55
2023/08/08 05:29:47;;;;;;;;;;;;;;;19.68;64.57;95333.09;5134018;28;1095;-55
2023/08/08 05:32:13;;;;;;;;;;;;;;;19.53;64.48;95341.47;5133742;28;1241;-55
2023/08/08 05:34:39;;;;;;;;;;;;;;;19.68;64.72;95349.38;5116121;28;944;-57
2023/08/08 05:37:05;;;;;;;;;;;;;;;19.72;65.19;95345.22;5116034;28;1024;-55
2023/08/08 05:39:32;;;;;;;;;;;;;;;19.88;64.34;95339.34;5133937;28;1060;-55
2023/08/08 05:41:58;;;;;;;;;;;;;;;20.09;65.49;95340.91;5133894;28;1910;-56
2023/08/08 05:44:24;;;;;;;;;;;;;;;20.25;64.53;95347.72;5115636;28;1622;-56
2023/08/08 05:46:50;;;;;;;;;;;;;;;20.42;63.54;95350.75;5117764;27;1111;-55
2023/08/08 05:49:16;;;;;;;;;;;;;;;20.50;61.41;95354.28;5119599;27;1008;-56
2023/08/08 05:51:43;;;;;;;;;;;;;;;20.42;61.20;95364.34;5119937;27;953;-56
2023/08/08 05:54:11;;;;;;;;;;;;;;;20.30;60.22;95355.22;5137769;27;1529;-55
2023/08/08 05:56:38;;;;;;;;;;;;;;;20.22;60.70;95360.88;5137552;27;1114;-55
2023/08/08 05:59:04;;;;;;;;;;;;;;;20.33;61.54;95365.63;5137817;27;1068;-56
2023/08/08 06:01:30;;;;;;;;;;;;;;;20.34;60.48;95361.88;5137460;27;1047;-55
2023/08/08 06:03:59;;;;;;;;;;;;;;;20.37;62.38;95369.56;5137351;27;1984;-56
2023/08/08 06:06:25;;;;;;;;;;;;;;;20.44;61.93;95370.38;5137484;27;968;-56
2023/08/08 06:08:52;;;;;;;;;;;;;;;20.58;59.37;95368.44;5137358;27;1064;-56
2023/08/08 06:11:18;;;;;;;;;;;;;;;20.75;59.15;95370.66;5137433;27;987;-56
2023/08/08 06:13:44;;;;;;;;;;;;;;;20.80;59.11;95379.81;5137658;27;1126;-56
2023/08/08 06:16:10;;;;;;;;;;;;;;;20.87;59.91;95371.63;5119261;27;976;-56
2023/08/08 06:18:37;;;;;;;;;;;;;;;21.02;58.55;95379.47;5137234;27;1095;-56
2023/08/08 06:21:03;;;;;;;;;;;;;;;20.92;58.56;95381.81;5118848;27;1346;-55
2023/08/08 06:23:29;;;;;;;;;;;;;;;20.85;56.56;95377.28;5137015;27;1921;-56
2023/08/08 06:25:56;;;;;;;;;;;;;;;20.90;58.10;95378.50;5118927;27;1671;-55
2023/08/08 06:28:23;;;;;;;;;;;;;;;20.96;58.73;95381.16;5102159;27;1392;-56
2023/08/08 06:30:49;;;;;;;;;;;;;;;21.10;56.83;95383.78;5136773;27;1238;-56
2023/08/08 06:33:15;;;;;;;;;;;;;;;21.29;58.54;95371.09;5136969;27;1032;-55
2023/08/08 06:35:42;;;;;;;;;;;;;;;21.52;56.25;95384.06;5118673;27;1569;-57
2023/08/08 06:38:09;;;;;;;;;;;;;;;21.71;55.79;95376.78;5136855;27;1024;-55
2023/08/08 06:40:35;;;;;;;;;;;;;;;21.73;54.73;95385.53;5137398;27;1321;-57
2023/08/08 06:43:01;;;;;;;;;;;;;;;21.73;56.59;95380.91;5118822;27;1914;-56
2023/08/08 06:45:27;;;;;;;;;;;;;;;21.80;57.30;95376.25;5136639;27;1031;-56
2023/08/08 06:47:53;;;;;;;;;;;;;;;21.75;56.52;95386.16;5136836;27;1051;-56
2023/08/08 06:50:19;;;;;;;;;;;;;;;21.68;56.43;95379.94;5136784;27;979;-55
2023/08/08 06:52:45;;;;;;;;;;;;;;;21.77;56.11;95389.47;5135231;27;2707;-57
2023/08/08 06:55:11;;;;;;;;;;;;;;;21.94;56.81;95384.28;5136222;27;1102;-58
2023/08/08 06:57:37;;;;;;;;;;;;;;;22.00;54.64;95386.06;5134960;27;1014;-58
2023/08/08 07:00:06;;;;;;;;;;;;;;;22.21;57.22;95385.63;5136067;27;994;-57
2023/08/08 07:02:32;;;;;;;;;;;;;;;22.45;53.85;95377.59;5135976;27;1913;-57
2023/08/08 07:04:58;;;;;;;;;;;;;;;22.20;53.24;95386.69;5136373;27;1032;-57
2023/08/08 07:07:24;;;;;;;;;;;;;;;22.14;54.73;95379.44;5136312;27;989;-57
2023/08/08 07:09:50;;;;;;;;;;;;;;;22.41;53.70;95385.41;5117776;27;1091;-57
2023/08/08 07:12:16;;;;;;;;;;;;;;;22.77;57.70;95375.47;5135939;27;1052;-57
2023/08/08 07:14:42;;;;;;;;;;;;;;;23.04;52.74;95379.72;5136153;27;1052;-57
2023/08/08 07:17:08;;;;;;;;;;;;;;;22.87;51.54;95380.34;5136215;27;1063;-57
2023/08/08 07:19:36;;;;;;;;;;;;;;;23.05;50.87;95373.19;5135761;27;1316;-57
2023/08/08 07:22:02;;;;;;;;;;;;;;;22.88;50.57;95376.59;5136061;27;1906;-57
2023/08/08 07:24:28;;;;;;;;;;;;;;;22.91;48.54;95373.38;5117701;27;1011;-57
2023/08/08 07:26:55;;;;;;;;;;;;;;;22.54;49.96;95370.78;5117728;27;1039;-57
2023/08/08 07:29:21;;;;;;;;;;;;;;;22.53;52.07;95366.38;5135620;27;1051;-57
2023/08/08 07:31:47;;;;;;;;;;;;;;;22.75;48.38;95376.78;5135642;27;1092;-58
2023/08/08 07:34:13;;;;;;;;;;;;;;;22.79;51.07;95367.91;5135525;27;1027;-58
2023/08/08 07:36:39;;;;;;;;;;;;;;;22.94;49.50;95375.63;5135835;27;981;-57
2023/08/08 07:39:05;;;;;;;;;;;;;;;23.33;47.09;95380.72;5135401;27;1043;-57
2023/08/08 07:41:31;;;;;;;;;;;;;;;23.33;48.55;95376.09;5117159;27;1024;-58
2023/08/08 07:43:57;;;;;;;;;;;;;;;23.28;47.92;95365.06;5135582;27;2000;-58
2023/08/08 07:46:23;;;;;;;;;;;;;;;23.28;48.37;95369.69;5135277;27;1047;-58
2023/08/08 07:48:49;;;;;;;;;;;;;;;23.42;45.45;95373.84;5135388;27;957;-58
2023/08/08 07:51:15;;;;;;;;;;;;;;;23.32;46.85;95368.16;5135510;27;1020;-58
2023/08/08 07:53:41;;;;;;;;;;;;;;;23.33;46.47;95370.63;5135442;27;1043;-58
2023/08/08 07:56:07;;;;;;;;;;;;;;;23.51;47.18;95366.16;5135451;27;1048;-58
2023/08/08 07:58:33;;;;;;;;;;;;;;;23.34;46.51;95377.75;5135214;27;1008;-58
2023/08/08 08:00:59;;;;;;;;;;;;;;;23.32;46.92;95359.97;5135200;27;973;-58
2023/08/08 08:03:26;;;;;;;;;;;;;;;23.63;46.37;95375.16;5134929;27;1914;-58
2023/08/08 08:05:53;;;;;;;;;;;;;;;23.85;46.55;95359.03;5135076;27;973;-58
2023/08/08 08:08:19;;;;;;;;;;;;;;;23.96;44.88;95377.31;5134832;27;1044;-58
2023/08/08 08:10:45;;;;;;;;;;;;;;;23.91;45.29;95373.63;5115812;27;1048;-58
2023/08/08 08:13:11;;;;;;;;;;;;;;;24.10;46.51;95366.13;5134803;27;1032;-58
2023/08/08 08:15:38;;;;;;;;;;;;;;;23.97;45.07;95373.50;5134823;27;1044;-58
2023/08/08 08:18:04;;;;;;;;;;;;;;;23.21;45.93;95371.69;5135055;27;1035;-58
2023/08/08 08:20:30;;;;;;;;;;;;;;;22.82;49.19;95355.69;5134699;27;1307;-58
2023/08/08 08:22:56;;;;;;;;;;;;;;;22.80;48.28;95358.66;5134648;27;1906;-58
2023/08/08 08:25:22;;;;;;;;;;;;;;;22.52;49.52;95356.56;5134852;27;1023;-57
2023/08/08 08:27:48;;;;;;;;;;;;;;;22.39;48.37;95357.56;5134949;27;995;-58
2023/08/08 08:30:14;;;;;;;;;;;;;;;22.27;48.44;95362.13;5134792;27;1047;-58
2023/08/08 08:32:41;;;;;;;;;;;;;;;22.78;46.07;95366.25;5134495;27;1332;-58
2023/08/08 08:35:07;;;;;;;;;;;;;;;23.13;46.46;95370.97;5134594;27;992;-58
2023/08/08 08:37:34;;;;;;;;;;;;;;;23.49;45.75;95365.56;5134693;27;973;-57
2023/08/08 08:40:00;;;;;;;;;;;;;;;23.08;46.37;95370.84;5134702;27;929;-57
2023/08/08 08:42:27;;;;;;;;;;;;;;;22.37;48.78;95369.75;5134320;27;1982;-58
2023/08/08 08:44:57;;;;;;;;;;;;;;;22.23;49.50;95375.34;5134708;27;1047;-57
2023/08/08 08:47:24;;;;;;;;;;;;;;;22.72;49.31;95366.31;5132958;27;2511;-57
2023/08/08 08:49:51;;;;;;;;;;;;;;;22.72;47.51;95371.78;5134658;27;1043;-57
2023/08/08 08:52:17;;;;;;;;;;;;;;;23.35;46.64;95379.44;5134233;27;956;-58
2023/08/08 08:54:43;;;;;;;;;;;;;;;23.23;45.88;95377.75;5134516;28;998;-57
2023/08/08 08:57:09;;;;;;;;;;;;;;;22.87;50.07;95363.19;5134560;28;1072;-58
2023/08/08 08:59:35;;;;;;;;;;;;;;;22.83;45.83;95372.88;5134331;28;1059;-57
2023/08/08 09:02:02;;;;;;;;;;;;;;;23.00;46.36;95369.25;5134391;28;1991;-57
2023/08/08 09:04:28;;;;;;;;;;;;;;;23.13;46.26;95364.69;5134556;28;1039;-57
2023/08/08 09:06:54;;;;;;;;;;;;;;;22.97;47.01;95357.97;5134545;28;976;-57
2023/08/08 09:09:21;;;;;;;;;;;;;;;22.55;48.51;95368.88;5134348;28;1072;-58
2023/08/08 09:11:48;;;;;;;;;;;;;;;22.15;49.09;95367.47;5134435;28;1087;-57
2023/08/08 09:14:17;;;;;;;;;;;;;;;22.05;50.23;95371.81;5134213;28;974;-58
2023/08/08 09:16:43;;;;;;;;;;;;;;;22.20;50.34;95370.34;5134157;28;974;-58
2023/08/08 09:19:09;;;;;;;;;;;;;;;22.48;49.41;95368.13;5133994;28;1271;-58
2023/08/08 09:21:35;;;;;;;;;;;;;;;22.88;46.60;95370.28;5135812;27;953;-57
2023/08/08 09:24:01;;;;;;;;;;;;;;;23.23;46.21;95373.13;5138271;27;1986;-58
2023/08/08 09:26:28;;;;;;;;;;;;;;;23.36;46.27;95372.06;5138272;27;979;-57
2023/08/08 09:28:54;;;;;;;;;;;;;;;23.31;45.62;95364.56;5138075;27;1056;-58
2023/08/08 09:31:20;;;;;;;;;;;;;;;22.91;46.51;95373.38;5137939;27;1214;-58
2023/08/08 09:33:48;;;;;;;;;;;;;;;22.70;48.80;95373.91;5136703;27;2570;-58
2023/08/08 09:36:15;;;;;;;;;;;;;;;22.63;48.09;95367.72;5138022;27;1036;-58
2023/08/08 09:38:41;;;;;;;;;;;;;;;22.51;48.56;95371.22;5138123;27;992;-57
2023/08/08 09:41:07;;;;;;;;;;;;;;;22.70;47.86;95376.63;5137868;27;1870;-58
2023/08/08 09:43:33;;;;;;;;;;;;;;;23.07;46.77;95380.09;5119319;27;1988;-58
2023/08/08 09:45:59;;;;;;;;;;;;;;;23.30;49.59;95370.28;5138215;27;1018;-58
2023/08/08 09:48:35;;;;;;;;;;;;;;;23.61;46.37;95374.56;5137763;27;1056;-58
2023/08/08 09:51:02;;;;;;;;;;;;;;;23.96;46.25;95368.28;5138080;27;1051;-57
2023/08/08 09:53:29;;;;;;;;;;;;;;;23.95;46.24;95372.91;5137460;27;1059;-58
2023/08/08 09:55:58;;;;;;;;;;;;;;;23.57;46.03;95370.66;5137497;27;1044;-58
2023/08/08 09:58:24;;;;;;;;;;;;;;;23.24;45.94;95372.06;5137682;27;988;-58
2023/08/08 10:00:50;;;;;;;;;;;;;;;23.38;44.77;95372.66;5137955;27;1056;-58
2023/08/08 10:03:16;;;;;;;;;;;;;;;23.64;46.18;95368.66;5137259;27;1906;-58
2023/08/08 10:05:45;;;;;;;;;;;;;;;23.84;45.82;95364.72;5136290;27;2476;-58
2023/08/08 10:08:15;;;;;;;;;;;;;;;23.81;45.83;95374.25;5137516;27;973;-58
2023/08/08 10:10:42;;;;;;;;;;;;;;;23.48;45.19;95372.06;5137427;27;1041;-57
2023/08/08 10:13:08;;;;;;;;;;;;;;;23.18;46.35;95367.53;5137216;27;1099;-58
2023/08/08 10:15:38;;;;;;;;;;;;;;;23.03;45.89;95375.28;5135707;27;2435;-58
2023/08/08 10:18:04;;;;;;;;;;;;;;;23.42;46.29;95378.47;5137406;27;1024;-58
2023/08/08 10:20:33;;;;;;;;;;;;;;;23.58;45.44;95375.88;5118770;27;1268;-57
2023/08/08 10:23:02;;;;;;;;;;;;;;;23.75;44.68;95376.00;5119156;27;2015;-58
2023/08/08 10:25:30;;;;;;;;;;;;;;;23.77;43.61;95384.78;5137231;27;1127;-58
2023/08/08 10:28:09;;;;;;;;;;;;;;;23.77;45.24;95373.84;5137042;27;1035;-58
2023/08/08 10:30:47;;;;;;;;;;;;;;;23.72;45.53;95375.63;5137119;27;995;-58
2023/08/08 10:33:17;;;;;;;;;;;;;;;23.89;44.98;95376.59;5136246;27;1083;-58
2023/08/08 10:35:57;;;;;;;;;;;;;;;24.10;45.65;95366.13;5137271;27;969;-58
2023/08/08 10:38:24;;;;;;;;;;;;;;;24.27;45.24;95363.47;5136843;27;1032;-58
2023/08/08 10:40:59;;;;;;;;;;;;;;;24.41;43.18;95364.00;5118604;27;1032;-57
2023/08/08 10:43:28;;;;;;;;;;;;;;;24.35;42.55;95361.16;5136983;27;1914;-58
2023/08/08 10:45:59;;;;;;;;;;;;;;;24.33;45.48;95357.84;5136938;27;973;-58
2023/08/08 10:48:26;;;;;;;;;;;;;;;23.99;42.28;95367.78;5136629;27;1055;-58
2023/08/08 10:50:54;;;;;;;;;;;;;;;23.79;43.67;95357.28;5136922;27;1040;-58
2023/08/08 10:53:22;;;;;;;;;;;;;;;23.59;44.85;95354.88;5136516;27;1043;-59
2023/08/08 10:55:56;;;;;;;;;;;;;;;23.38;44.83;95356.28;5136856;27;1049;-59
2023/08/08 10:58:23;;;;;;;;;;;;;;;23.54;44.89;95358.31;5136446;27;1063;-58
2023/08/08 11:00:50;;;;;;;;;;;;;;;23.69;42.56;95367.91;5136580;27;1056;-58
2023/08/08 11:03:16;;;;;;;;;;;;;;;23.97;46.37;95357.09;5136221;27;1905;-59
2023/08/08 11:05:46;;;;;;;;;;;;;;;24.25;44.75;95363.72;5136422;27;956;-58
2023/08/08 11:08:12;;;;;;;;;;;;;;;24.47;44.15;95349.38;5136220;27;1048;-58
2023/08/08 11:10:39;;;;;;;;;;;;;;;24.44;41.52;95361.63;5136241;27;1028;-58
2023/08/08 11:13:06;;;;;;;;;;;;;;;24.49;43.25;95356.28;5136353;27;969;-59
2023/08/08 11:15:32;;;;;;;;;;;;;;;24.66;43.63;95359.09;5135257;27;2426;-58
2023/08/08 11:17:59;;;;;;;;;;;;;;;24.70;42.11;95371.19;5136065;27;997;-58
2023/08/08 11:20:29;;;;;;;;;;;;;;;24.42;41.65;95361.03;5135939;27;1543;-58
2023/08/08 11:22:55;;;;;;;;;;;;;;;24.39;43.94;95363.44;5135958;27;1906;-58
2023/08/08 11:25:22;;;;;;;;;;;;;;;24.22;43.07;95358.72;5136115;27;1023;-58
2023/08/08 11:27:50;;;;;;;;;;;;;;;23.82;44.19;95353.22;5135913;27;1032;-58
2023/08/08 11:30:16;;;;;;;;;;;;;;;23.62;44.36;95353.56;5135579;27;1032;-57
2023/08/08 11:32:42;;;;;;;;;;;;;;;23.61;44.36;95362.81;5135704;27;1080;-58
2023/08/08 11:35:08;;;;;;;;;;;;;;;23.95;45.20;95355.69;5135797;27;969;-58
2023/08/08 11:37:34;;;;;;;;;;;;;;;24.07;44.30;95363.88;5135541;27;1127;-58
2023/08/08 11:40:01;;;;;;;;;;;;;;;24.22;44.01;95355.16;5134246;27;2729;-57
2023/08/08 11:42:27;;;;;;;;;;;;;;;24.26;43.61;95354.41;5135462;27;1988;-58
2023/08/08 11:44:53;;;;;;;;;;;;;;;24.47;43.10;95349.38;5135599;27;1043;-58
2023/08/08 11:47:24;;;;;;;;;;;;;;;24.50;44.43;95349.72;5135531;27;929;-57
2023/08/08 11:49:51;;;;;;;;;;;;;;;24.20;43.67;95349.13;5135734;27;960;-57
2023/08/08 11:52:18;;;;;;;;;;;;;;;24.21;44.16;95348.88;5135627;27;1055;-57
2023/08/08 11:54:44;;;;;;;;;;;;;;;24.36;44.84;95332.78;5129948;27;2804;-57
2023/08/08 11:57:10;;;;;;;;;;;;;;;24.33;42.93;95337.91;5114838;28;1000;-57
2023/08/08 11:59:36;;;;;;;;;;;;;;;24.17;43.07;95323.94;5114738;28;1043;-57
2023/08/08 12:02:02;;;;;;;;;;;;;;;24.21;45.40;95317.97;5114997;28;1225;-57
2023/08/08 12:04:28;;;;;;;;;;;;;;;24.27;43.32;95323.31;5114801;28;2001;-57
2023/08/08 12:07:02;;;;;;;;;;;;;;;24.24;43.80;95322.97;5114579;28;786;-57
2023/08/08 12:09:32;;;;;;;;;;;;;;;24.18;43.22;95319.31;5114441;28;1134;-57
2023/08/08 12:11:59;;;;;;;;;;;;;;;24.16;44.01;95325.00;5114631;28;1048;-57
2023/08/08 12:14:25;;;;;;;;;;;;;;;24.37;44.07;95319.94;5114434;28;1056;-56
2023/08/08 12:16:53;;;;;;;;;;;;;;;24.28;42.47;95315.94;5132710;27;2876;-59
2023/08/08 12:19:22;;;;;;;;;;;;;;;24.15;43.96;95306.97;5134764;27;1691;-60
2023/08/08 12:21:48;;;;;;;;;;;;;;;24.14;43.52;95318.94;5134895;27;1043;-59
2023/08/08 12:24:14;;;;;;;;;;;;;;;24.08;43.43;95314.47;5134747;27;1909;-58
2023/08/08 12:26:40;;;;;;;;;;;;;;;24.19;44.16;95312.78;5134829;27;1095;-59
2023/08/08 12:29:06;;;;;;;;;;;;;;;24.23;42.15;95324.88;5135091;27;969;-58
2023/08/08 12:31:32;;;;;;;;;;;;;;;24.14;42.97;95323.59;5134570;27;1243;-60
2023/08/08 12:33:58;;;;;;;;;;;;;;;24.09;41.82;95320.75;5134683;27;1028;-59
2023/08/08 12:36:25;;;;;;;;;;;;;;;24.15;41.80;95320.63;5134597;27;1079;-58
2023/08/08 12:38:51;;;;;;;;;;;;;;;24.07;41.86;95320.97;5134601;27;1035;-58
2023/08/08 12:41:17;;;;;;;;;;;;;;;24.02;42.70;95315.44;5134504;27;1052;-57
2023/08/08 12:43:44;;;;;;;;;;;;;;;24.03;43.77;95310.81;5134470;27;1905;-58
2023/08/08 12:46:10;;;;;;;;;;;;;;;23.86;43.63;95306.09;5134539;27;1069;-57
2023/08/08 12:48:36;;;;;;;;;;;;;;;23.83;43.23;95314.78;5134783;27;1327;-58
2023/08/08 12:51:03;;;;;;;;;;;;;;;23.93;42.44;95311.41;5132959;27;2771;-58
2023/08/08 12:53:29;;;;;;;;;;;;;;;23.95;43.30;95310.09;5133935;28;1000;-59
2023/08/08 12:55:55;;;;;;;;;;;;;;;23.93;43.02;95309.50;5132878;27;1047;-58